NFTF/TBU METAR and TAF weather

Enter ICAO airport designator
Station Type Date Time Source
NFTF METAR 2024/04/17 13:00 UTC NOAA

NFTF 171300Z 12008KT 9999 FEW016 BKN040 25/22 Q1014


Station Type Date Time Source
NFTF Decoded METAR 2024/04/17 13:00 UTC NOAA

Fua'Amotu, Tonga (NFTF) 21-14S 175-09W 41M
Apr 17, 2024 - 09:00 AM EDT / 2024.04.17 1300 UTC
Wind: from the ESE (120 degrees) at 9 MPH (8 KT):0
Visibility: greater than 7 mile(s):0
Sky conditions: mostly cloudy
Temperature: 77 F (25 C)
Dew Point: 71 F (22 C)
Relative Humidity: 83%
Pressure (altimeter): 29.94 in. Hg (1014 hPa)
ob: NFTF 171300Z 12008KT 9999 FEW016 BKN040 25/22 Q1014
cycle: 13

Station Type Date Time Source
NFTF TAF 2024/04/17 18:24 UTC NOAA